Terminal Aerodrome Forecast
Issued by NWS Corpus Christi, TX

Home | Current Version | Previous Version | Text Only | Print | Product List | Glossary On
Versions: 1 2 3 4 5 6 7 8 9 10 11 12 13 14 15 16 17
601
FTUS44 KCRP 222332
TAFVCT
TAF
KVCT 222332Z 2300/2324 14008KT P6SM SKC
     FM230400 16005KT P6SM SKC
     FM231000 VRB03KT 3SM BR SKC
     FM231600 17012KT P6SM SKC
     FM232100 16014G20KT P6SM SKC=

USA.gov is the U.S. government's official web portal to all federal, state and local government web resources and services.